Decoded Metar for SAVC (COMODORO RIVADAVIA in ARGENTINA) (IATA:CRD) | Meteo·Mobile Aviation Weather
aviador You're here:

SAVC Decoded Metar

COMODORO RIVADAVIA in ARGENTINA
Report Time2018-10-23 09:00:00
UTC Time2018-10-23 12:06:20
Flight Rules Old
Wind320° at 03 kt
W.Decomp.*RWY 25: 1.4 kt HW 2.7 kt RCW
W.Rank320° ranks 3
Current wind is below 320° avg. (10.7)
Visibility9999 m
Phenomena:N/A
Clouds:N/A
Expected CloudBase > 400 ft AGL from Temp-Dew spread
CeilingNone
Temp03°C (ISA -12)
Dew Point02°C (93% RH)
AAT0.2°C
QNH1026 hPa
Density Alt-1,614 ft
Elevation151 ft
Report Wrong Elevation
Raw Report
METAR SAVC 230900Z 32003KT CAVOK 03/02 Q1026=

Extra information for SAVC:More info

Metar Taf Metar & Taf Last 4 Metars F.Rules Stats Wind Profile Meteogram Temp Stats Airport Information Weather charts Add Link Nearby VenuesMetar ALERT Operation Metar Decoded Social comments